To NAV CANADA Home Page Login to a new session Search on AWWS site Feedback and Comments Disclaimer Vers la page française équivalente Tips FAQ What's new on the site To the Forecasts and Observations / NOTAM section To "File a Flight Plan" website Publications and other links Update of the User's profile FIC Telephone Numbers My Weather Data Folder Route Weather Data Regional Weather Data Local Weather Data To the Forecasts and Observations / NOTAM section
Request Generated 01/21/2017 at 02:03:51 UTC . Weather information available at that time is displayed.

METAR/TAF

ARVIAT/NU    (show WxCam)

METAR CYEK 210200Z AUTO 11020G27KT 3SM -SN SCT037 M12/M14 A2995 RMK
SLP144=
SPECI CYEK 210159Z AUTO 11021G27KT 3SM -SN SCT037 M12/M14 A2995 RMK
SLP144=
METAR CYEK 210100Z AUTO 11021KT 4SM BR BKN026 M12/M14 A2995 RMK
SLP144=
SPECI CYEK 210029Z AUTO 11020G28KT 3SM BR OVC026 M11/M13 A2995 RMK
SLP143=
SPECI CYEK 210021Z AUTO 11024KT 2 1/2SM BLSN OVC026 M11/M13 A2995 RMK
SLP143=
METAR CYEK 210000Z AUTO 11021G27KT 3SM BR OVC028 M11/M12 A2994 RMK
SLP142=

TAF AMD CYEK 210014Z 2100/2112 11022G32KT P6SM -SN SCT008 OVC025
TEMPO 2100/2109 2SM -SN BLSN BR BKN008
FM210900 12023G33KT 5SM -SN BR OVC012 TEMPO 2109/2112 1/2SM SN
BLSN VV005
RMK NXT FCST BY 210600Z=
Your time UTC time
Weather data provided by Environment Canada and NAV CANADA